Time;durP1;ratioP1;P1;durP2;ratioP2;P2;SDS_P1;SDS_P2;PMS_P1;PMS_P2;Temp;Humidity;BMP_temperature;BMP_pressure;BME280_temperature;BME280_humidity;BME280_pressure;Samples;Min_cycle;Max_cycle;Signal;HPM_P1;HPM_P2
2023/03/25 00:01:18;;;;;;;;;;;;;;;12.63;88.46;98723.88;5097035;28;19920;-64
2023/03/25 00:03:49;;;;;;;;;;;;;;;12.62;88.45;98722.22;5097411;28;20014;-65
2023/03/25 00:06:18;;;;;;;;;;;;;;;12.61;88.52;98720.50;5096968;28;19927;-65
2023/03/25 00:08:47;;;;;;;;;;;;;;;12.58;88.30;98725.69;5097261;28;19973;-65
2023/03/25 00:11:15;;;;;;;;;;;;;;;12.55;88.53;98730.88;5097200;28;19959;-65
2023/03/25 00:13:46;;;;;;;;;;;;;;;12.53;88.59;98724.97;5096886;28;19920;-65
2023/03/25 00:16:17;;;;;;;;;;;;;;;12.50;88.55;98725.06;5097052;28;19920;-65
2023/03/25 00:18:47;;;;;;;;;;;;;;;12.46;88.61;98720.88;5096804;28;19924;-65
2023/03/25 00:21:17;;;;;;;;;;;;;;;12.40;88.73;98723.59;5096654;28;19920;-65
2023/03/25 00:23:46;;;;;;;;;;;;;;;12.33;88.76;98722.06;5096494;28;19974;-64
2023/03/25 00:26:15;;;;;;;;;;;;;;;12.31;88.98;98731.50;5097237;28;19942;-65
2023/03/25 00:28:45;;;;;;;;;;;;;;;12.21;89.03;98730.00;5096554;28;19927;-65
2023/03/25 00:31:15;;;;;;;;;;;;;;;12.17;89.11;98730.94;5096577;28;19920;-65
2023/03/25 00:33:44;;;;;;;;;;;;;;;12.15;89.28;98720.75;5095332;28;19920;-65
2023/03/25 00:36:13;;;;;;;;;;;;;;;12.08;89.37;98732.84;5095487;28;20370;-65
2023/03/25 00:38:44;;;;;;;;;;;;;;;12.00;89.44;98729.59;5096695;28;20274;-65
2023/03/25 00:41:21;;;;;;;;;;;;;;;11.97;89.90;98721.16;5094999;28;19920;-65
2023/03/25 00:43:53;;;;;;;;;;;;;;;11.97;90.25;98727.09;5095154;28;19920;-65
2023/03/25 00:46:23;;;;;;;;;;;;;;;12.03;90.53;98737.22;5096477;28;19920;-66
2023/03/25 00:48:51;;;;;;;;;;;;;;;12.09;90.43;98742.19;5096548;28;19924;-65
2023/03/25 00:51:20;;;;;;;;;;;;;;;12.14;90.85;98746.38;5096129;28;20006;-65
2023/03/25 00:53:52;;;;;;;;;;;;;;;12.20;90.61;98746.22;5096109;28;19920;-66
2023/03/25 00:56:20;;;;;;;;;;;;;;;12.24;90.64;98751.22;5096042;28;19959;-66
2023/03/25 00:58:49;;;;;;;;;;;;;;;12.23;90.92;98747.00;5095985;28;19965;-65
2023/03/25 01:01:22;;;;;;;;;;;;;;;12.24;90.94;98755.53;5095853;28;19945;-66
2023/03/25 01:03:56;;;;;;;;;;;;;;;12.26;90.96;98754.59;5096211;28;19989;-66
2023/03/25 01:06:28;;;;;;;;;;;;;;;12.25;91.06;98757.19;5096154;28;19920;-66
2023/03/25 01:08:57;;;;;;;;;;;;;;;12.18;91.27;98758.22;5095866;28;19951;-66
2023/03/25 01:11:27;;;;;;;;;;;;;;;12.11;91.15;98760.06;5096100;28;19919;-66
2023/03/25 01:13:58;;;;;;;;;;;;;;;12.11;91.37;98760.06;5094739;28;19920;-66
2023/03/25 01:16:28;;;;;;;;;;;;;;;12.13;91.64;98762.59;5095601;28;19977;-65
2023/03/25 01:18:57;;;;;;;;;;;;;;;12.10;91.77;98753.25;5095917;28;19962;-66
2023/03/25 01:21:25;;;;;;;;;;;;;;;12.04;91.87;98754.22;5095458;28;19967;-66
2023/03/25 01:23:54;;;;;;;;;;;;;;;11.98;91.99;98754.38;5095519;28;19927;-66
2023/03/25 01:26:23;;;;;;;;;;;;;;;11.92;92.34;98754.50;5094242;28;19985;-65
2023/03/25 01:28:52;;;;;;;;;;;;;;;11.87;92.30;98753.75;5095339;28;19931;-66
2023/03/25 01:31:22;;;;;;;;;;;;;;;11.81;93.19;98751.31;5094501;28;19920;-66
2023/03/25 01:33:52;;;;;;;;;;;;;;;11.80;92.88;98739.44;5095277;28;19927;-66
2023/03/25 01:36:23;;;;;;;;;;;;;;;11.80;92.86;98748.81;5095962;28;19970;-66
2023/03/25 01:38:52;;;;;;;;;;;;;;;11.79;93.25;98742.84;5095572;28;19962;-66
2023/03/25 01:41:20;;;;;;;;;;;;;;;11.81;93.55;98751.31;5095110;28;19923;-66
2023/03/25 01:43:59;;;;;;;;;;;;;;;11.87;93.72;98746.09;5095077;28;19943;-65
2023/03/25 01:46:28;;;;;;;;;;;;;;;11.87;93.69;98735.88;5094030;28;19927;-66
2023/03/25 01:49:00;;;;;;;;;;;;;;;11.85;93.65;98722.25;5093766;28;19920;-66
2023/03/25 01:51:30;;;;;;;;;;;;;;;11.80;93.93;98724.09;5095027;28;20014;-66
2023/03/25 01:53:59;;;;;;;;;;;;;;;11.81;94.18;98725.75;5094114;28;20316;-66
2023/03/25 01:56:30;;;;;;;;;;;;;;;11.81;94.24;98730.88;5093978;28;19920;-66
2023/03/25 01:59:01;;;;;;;;;;;;;;;11.78;94.35;98730.09;5094842;28;19926;-66
2023/03/25 02:01:30;;;;;;;;;;;;;;;11.75;94.48;98715.66;5093675;28;19969;-66
2023/03/25 02:04:08;;;;;;;;;;;;;;;11.76;94.95;98722.44;5093601;28;19941;-66
2023/03/25 02:06:40;;;;;;;;;;;;;;;11.82;94.73;98717.22;5095111;28;19934;-66
2023/03/25 02:09:10;;;;;;;;;;;;;;;11.85;95.05;98717.13;5093685;28;19919;-66
2023/03/25 02:11:39;;;;;;;;;;;;;;;11.88;94.96;98727.31;5093503;28;19919;-66
2023/03/25 02:14:10;;;;;;;;;;;;;;;11.88;95.30;98726.44;5094557;28;19970;-66
2023/03/25 02:16:45;;;;;;;;;;;;;;;11.84;94.91;98724.84;5094880;28;19920;-67
2023/03/25 02:19:31;;;;;;;;;;;;;;;11.82;95.03;98724.88;5094574;28;19927;-66
2023/03/25 02:22:13;;;;;;;;;;;;;;;11.82;94.83;98712.09;5094141;28;20413;-66
2023/03/25 02:25:00;;;;;;;;;;;;;;;11.79;94.90;98701.94;5093350;28;19959;-67
2023/03/25 02:27:40;;;;;;;;;;;;;;;11.77;95.13;98707.97;5094732;28;19920;-66
2023/03/25 02:30:24;;;;;;;;;;;;;;;11.72;94.99;98697.84;5094781;28;20011;-66
2023/03/25 02:33:04;;;;;;;;;;;;;;;11.76;95.20;98689.22;5094630;28;19981;-66
2023/03/25 02:35:51;;;;;;;;;;;;;;;11.76;95.06;98681.53;5094356;28;19927;-66
2023/03/25 02:38:31;;;;;;;;;;;;;;;11.82;95.26;98686.53;5093421;28;19920;-66
2023/03/25 02:41:05;;;;;;;;;;;;;;;11.86;95.36;98703.50;5094182;28;19927;-66
2023/03/25 02:43:38;;;;;;;;;;;;;;;11.88;95.24;98691.50;5092985;28;19920;-66
2023/03/25 02:46:09;;;;;;;;;;;;;;;11.86;95.25;98694.97;5076705;28;19920;-66
2023/03/25 02:48:42;;;;;;;;;;;;;;;11.83;95.01;98708.66;5094421;28;19924;-66
2023/03/25 02:51:14;;;;;;;;;;;;;;;11.84;95.11;98710.34;5094337;28;20035;-66
2023/03/25 02:53:47;;;;;;;;;;;;;;;11.87;95.06;98714.56;5094306;28;19947;-66
2023/03/25 02:56:17;;;;;;;;;;;;;;;11.91;95.15;98711.91;5094102;28;19926;-66
2023/03/25 02:58:47;;;;;;;;;;;;;;;11.88;95.05;98711.97;5092817;28;19920;-66
2023/03/25 03:01:17;;;;;;;;;;;;;;;11.92;95.38;98712.75;5094238;28;19920;-66
2023/03/25 03:03:45;;;;;;;;;;;;;;;11.93;94.88;98710.16;5093376;28;19927;-67
2023/03/25 03:06:16;;;;;;;;;;;;;;;11.92;95.16;98705.94;5098431;28;20316;-66
2023/03/25 03:08:55;;;;;;;;;;;;;;;11.90;94.88;98705.09;5098719;28;20381;-66
2023/03/25 03:11:28;;;;;;;;;;;;;;;11.92;94.99;98722.97;5098137;28;19950;-66
2023/03/25 03:14:01;;;;;;;;;;;;;;;11.90;94.94;98723.00;5098047;28;19985;-66
2023/03/25 03:16:33;;;;;;;;;;;;;;;11.91;94.85;98727.25;5098047;28;19928;-66
2023/03/25 03:19:07;;;;;;;;;;;;;;;11.91;94.79;98737.47;5097976;28;19920;-67
2023/03/25 03:21:40;;;;;;;;;;;;;;;11.88;94.69;98732.41;5097959;28;19920;-67
2023/03/25 03:24:12;;;;;;;;;;;;;;;11.89;94.59;98731.56;5097796;28;19920;-66
2023/03/25 03:26:45;;;;;;;;;;;;;;;11.91;94.56;98736.63;5098172;28;19923;-67
2023/03/25 03:29:17;;;;;;;;;;;;;;;11.92;94.46;98728.09;5097843;28;19924;-66
2023/03/25 03:31:48;;;;;;;;;;;;;;;11.89;94.39;98718.78;5098061;28;20290;-66
2023/03/25 03:34:39;;;;;;;;;;;;;;;11.84;94.23;98729.97;5097946;28;19955;-66
2023/03/25 03:37:10;;;;;;;;;;;;;;;11.79;93.85;98737.72;5097658;28;20003;-67
2023/03/25 03:39:39;;;;;;;;;;;;;;;11.78;93.82;98743.69;5097857;28;19919;-66
2023/03/25 03:42:13;;;;;;;;;;;;;;;11.77;93.48;98747.16;5097442;28;19920;-66
2023/03/25 03:44:44;;;;;;;;;;;;;;;11.74;93.21;98744.66;5097415;28;19920;-66
2023/03/25 03:47:16;;;;;;;;;;;;;;;11.74;92.97;98744.66;5097754;28;19920;-66
2023/03/25 03:49:47;;;;;;;;;;;;;;;11.76;92.04;98747.16;5098072;28;19920;-66
2023/03/25 03:52:17;;;;;;;;;;;;;;;11.77;92.26;98759.09;5097328;28;19919;-66
2023/03/25 03:54:48;;;;;;;;;;;;;;;11.76;91.60;98760.78;5097557;28;19943;-66
2023/03/25 03:57:21;;;;;;;;;;;;;;;11.77;91.14;98744.59;5097585;28;20369;-66
2023/03/25 03:59:53;;;;;;;;;;;;;;;11.80;90.52;98749.66;5097758;28;20371;-66
2023/03/25 04:02:26;;;;;;;;;;;;;;;11.83;89.70;98764.09;5097114;28;19920;-66
2023/03/25 04:04:59;;;;;;;;;;;;;;;11.84;88.95;98761.50;5097040;28;20378;-66
2023/03/25 04:07:37;;;;;;;;;;;;;;;11.87;88.37;98773.38;5097078;28;19927;-66
2023/03/25 04:10:13;;;;;;;;;;;;;;;11.88;87.53;98773.31;5097020;28;19959;-66
2023/03/25 04:12:45;;;;;;;;;;;;;;;11.88;86.90;98777.59;5097189;28;20007;-65
2023/03/25 04:15:15;;;;;;;;;;;;;;;11.87;86.29;98781.88;5096811;28;19969;-65
2023/03/25 04:17:44;;;;;;;;;;;;;;;11.87;85.79;98781.88;5096764;28;20014;-65
2023/03/25 04:20:15;;;;;;;;;;;;;;;11.85;85.14;98783.59;5097095;28;19920;-65
2023/03/25 04:22:44;;;;;;;;;;;;;;;11.84;84.49;98784.50;5096573;28;19927;-65
2023/03/25 04:25:13;;;;;;;;;;;;;;;11.85;83.99;98800.69;5096966;28;20328;-65
2023/03/25 04:27:47;;;;;;;;;;;;;;;11.82;83.42;98793.06;5096456;28;20365;-65
2023/03/25 04:30:18;;;;;;;;;;;;;;;11.85;83.08;98793.84;5096621;28;19974;-65
2023/03/25 04:32:47;;;;;;;;;;;;;;;11.88;82.79;98805.72;5096647;28;19920;-65
2023/03/25 04:35:17;;;;;;;;;;;;;;;11.89;82.44;98805.69;5097344;28;19920;-65
2023/03/25 04:37:47;;;;;;;;;;;;;;;11.84;82.25;98811.78;5096423;28;19927;-65
2023/03/25 04:40:17;;;;;;;;;;;;;;;11.79;82.32;98804.19;5096427;28;19943;-65
2023/03/25 04:42:47;;;;;;;;;;;;;;;11.79;82.16;98806.75;5096314;28;19920;-65
2023/03/25 04:45:16;;;;;;;;;;;;;;;11.76;82.15;98799.13;5096598;28;20101;-65
2023/03/25 04:47:47;;;;;;;;;;;;;;;11.76;81.96;98777.84;5096175;28;20418;-65
2023/03/25 04:50:19;;;;;;;;;;;;;;;11.79;81.85;98780.34;5096593;28;20022;-65
2023/03/25 04:52:47;;;;;;;;;;;;;;;11.79;81.51;98785.44;5096221;28;20015;-65
2023/03/25 04:55:18;;;;;;;;;;;;;;;11.74;81.53;98800.88;5096090;28;19920;-65
2023/03/25 04:57:48;;;;;;;;;;;;;;;11.70;81.58;98798.41;5096090;28;19924;-65
2023/03/25 05:00:18;;;;;;;;;;;;;;;11.70;81.07;98804.38;5096013;28;19920;-65
2023/03/25 05:02:49;;;;;;;;;;;;;;;11.73;80.71;98806.88;5096256;28;19926;-65
2023/03/25 05:05:19;;;;;;;;;;;;;;;11.76;80.28;98811.91;5095958;28;19920;-65
2023/03/25 05:07:48;;;;;;;;;;;;;;;11.80;79.87;98816.13;5095785;28;19923;-65
2023/03/25 05:10:18;;;;;;;;;;;;;;;11.81;79.37;98801.59;5096057;28;19959;-65
2023/03/25 05:12:47;;;;;;;;;;;;;;;11.82;79.14;98805.84;5095902;28;19926;-65
2023/03/25 05:15:16;;;;;;;;;;;;;;;11.83;78.97;98805.81;5095966;28;20297;-65
2023/03/25 05:17:44;;;;;;;;;;;;;;;11.82;78.81;98819.47;5095953;28;20003;-65
2023/03/25 05:20:15;;;;;;;;;;;;;;;11.81;78.56;98822.91;5095578;28;20010;-65
2023/03/25 05:22:44;;;;;;;;;;;;;;;11.83;78.56;98823.69;5095423;28;19974;-65
2023/03/25 05:25:12;;;;;;;;;;;;;;;11.85;78.27;98814.28;5095569;28;20015;-65
2023/03/25 05:27:41;;;;;;;;;;;;;;;11.85;78.12;98821.94;5094923;28;19928;-65
2023/03/25 05:30:10;;;;;;;;;;;;;;;11.88;78.07;98824.47;5095672;28;19920;-65
2023/03/25 05:32:39;;;;;;;;;;;;;;;11.88;77.63;98814.22;5095687;28;19920;-65
2023/03/25 05:35:09;;;;;;;;;;;;;;;11.92;77.65;98822.69;5095649;28;20022;-65
2023/03/25 05:37:39;;;;;;;;;;;;;;;11.87;77.66;98815.13;5095269;28;19920;-65
2023/03/25 05:40:09;;;;;;;;;;;;;;;11.88;77.64;98813.38;5095221;28;20461;-65
2023/03/25 05:42:45;;;;;;;;;;;;;;;11.88;77.55;98813.38;5095401;28;19989;-65
2023/03/25 05:45:15;;;;;;;;;;;;;;;11.88;78.07;98821.06;5095169;28;19969;-65
2023/03/25 05:47:44;;;;;;;;;;;;;;;11.90;77.79;98817.59;5095040;28;19920;-65
2023/03/25 05:50:13;;;;;;;;;;;;;;;11.90;77.72;98817.59;5095269;28;19924;-65
2023/03/25 05:52:44;;;;;;;;;;;;;;;11.92;77.77;98815.88;5094986;28;19931;-65
2023/03/25 05:55:15;;;;;;;;;;;;;;;11.98;77.64;98822.56;5095100;28;19934;-64
2023/03/25 05:57:47;;;;;;;;;;;;;;;12.06;77.63;98826.66;5095307;28;20027;-65
2023/03/25 06:00:18;;;;;;;;;;;;;;;12.10;78.00;98825.72;5094778;28;19962;-65
2023/03/25 06:02:47;;;;;;;;;;;;;;;12.18;77.88;98829.84;5094868;28;19920;-65
2023/03/25 06:05:17;;;;;;;;;;;;;;;12.16;77.79;98829.03;5094789;28;19920;-64
2023/03/25 06:07:47;;;;;;;;;;;;;;;12.20;77.56;98830.63;5095100;28;19951;-65
2023/03/25 06:10:16;;;;;;;;;;;;;;;12.26;77.47;98835.63;5094654;28;20374;-65
2023/03/25 06:12:45;;;;;;;;;;;;;;;12.31;77.42;98836.38;5094632;28;19926;-65
2023/03/25 06:15:16;;;;;;;;;;;;;;;12.33;77.39;98832.06;5094792;28;19923;-65
2023/03/25 06:17:46;;;;;;;;;;;;;;;12.34;77.26;98833.75;5094593;28;19920;-65
2023/03/25 06:20:18;;;;;;;;;;;;;;;12.36;76.97;98837.09;5093645;28;19919;-65
2023/03/25 06:22:48;;;;;;;;;;;;;;;12.42;77.04;98835.28;5094206;28;20027;-65
2023/03/25 06:25:18;;;;;;;;;;;;;;;12.48;76.87;98837.69;5094757;28;19920;-65
2023/03/25 06:27:47;;;;;;;;;;;;;;;12.53;76.66;98835.03;5094386;28;19920;-65
2023/03/25 06:30:17;;;;;;;;;;;;;;;12.61;76.42;98844.22;5094364;28;19956;-65
2023/03/25 06:32:45;;;;;;;;;;;;;;;12.67;76.19;98843.22;5094549;28;19920;-65
2023/03/25 06:35:18;;;;;;;;;;;;;;;12.72;76.28;98857.63;5094214;28;19973;-64
2023/03/25 06:37:49;;;;;;;;;;;;;;;12.82;76.07;98852.28;5094446;28;19920;-64
2023/03/25 06:40:26;;;;;;;;;;;;;;;12.91;75.96;98849.53;5094821;28;19920;-64
2023/03/25 06:42:55;;;;;;;;;;;;;;;13.00;75.48;98862.97;5093306;28;19920;-64
2023/03/25 06:45:50;;;;;;;;;;;;;;;13.13;75.00;98859.25;5094621;28;19920;-64
2023/03/25 06:48:26;;;;;;;;;;;;;;;13.31;74.65;98866.50;5093003;28;19920;-64
2023/03/25 06:50:55;;;;;;;;;;;;;;;13.58;74.58;98872.63;5094323;28;19919;-64
2023/03/25 06:53:25;;;;;;;;;;;;;;;13.82;74.35;98863.47;5094064;28;19974;-64
2023/03/25 06:55:56;;;;;;;;;;;;;;;14.03;73.53;98870.59;5094388;28;19920;-65
2023/03/25 06:58:33;;;;;;;;;;;;;;;14.28;73.06;98875.84;5093966;28;19920;-64
2023/03/25 07:01:05;;;;;;;;;;;;;;;14.40;71.66;98876.38;5094028;28;19930;-64
2023/03/25 07:03:36;;;;;;;;;;;;;;;14.51;71.36;98874.34;5093849;28;19920;-65
2023/03/25 07:06:05;;;;;;;;;;;;;;;14.52;70.65;98865.75;5093828;28;19920;-64
2023/03/25 07:08:35;;;;;;;;;;;;;;;14.53;70.35;98864.88;5093754;28;19927;-65
2023/03/25 07:11:04;;;;;;;;;;;;;;;14.54;69.81;98869.09;5094160;28;19935;-64
2023/03/25 07:13:33;;;;;;;;;;;;;;;14.47;69.51;98879.59;5093814;28;19927;-64
2023/03/25 07:16:02;;;;;;;;;;;;;;;14.50;69.23;98882.94;5093799;28;20010;-64
2023/03/25 07:18:30;;;;;;;;;;;;;;;14.54;68.76;98874.25;5093810;28;20030;-64
2023/03/25 07:20:59;;;;;;;;;;;;;;;14.52;68.62;98881.16;5111109;28;20045;-65
2023/03/25 07:23:27;;;;;;;;;;;;;;;14.54;68.11;98879.38;5113943;28;19941;-65
2023/03/25 07:25:57;;;;;;;;;;;;;;;14.61;68.37;98869.78;5113913;28;19965;-64
2023/03/25 07:28:26;;;;;;;;;;;;;;;14.69;68.04;98868.66;5114026;28;19919;-65
2023/03/25 07:30:54;;;;;;;;;;;;;;;14.92;68.34;98855.13;5114312;28;20430;-64
2023/03/25 07:33:23;;;;;;;;;;;;;;;15.04;68.18;98852.16;5114335;28;20370;-64
2023/03/25 07:35:52;;;;;;;;;;;;;;;15.05;67.04;98858.09;5114359;28;20022;-64
2023/03/25 07:38:21;;;;;;;;;;;;;;;15.09;66.82;98855.38;5114312;28;19988;-64
2023/03/25 07:40:49;;;;;;;;;;;;;;;15.25;66.52;98848.03;5113900;28;19950;-65
2023/03/25 07:43:19;;;;;;;;;;;;;;;15.33;66.08;98848.63;5114115;28;19920;-65
2023/03/25 07:45:56;;;;;;;;;;;;;;;15.45;65.59;98850.84;5114260;28;19926;-65
2023/03/25 07:48:29;;;;;;;;;;;;;;;15.56;65.32;98864.16;5113127;28;19926;-64
2023/03/25 07:50:57;;;;;;;;;;;;;;;15.47;65.39;98863.63;5116217;28;19919;-65
2023/03/25 07:53:26;;;;;;;;;;;;;;;15.24;65.31;98866.91;5118005;28;19959;-64
2023/03/25 07:55:55;;;;;;;;;;;;;;;14.98;65.15;98878.03;5118207;28;20350;-64
2023/03/25 07:58:25;;;;;;;;;;;;;;;15.05;65.13;98869.25;5117868;28;20022;-64
2023/03/25 08:00:56;;;;;;;;;;;;;;;15.32;64.58;98870.09;5117500;28;19920;-64
2023/03/25 08:03:26;;;;;;;;;;;;;;;15.57;64.41;98870.16;5117688;28;19959;-65
2023/03/25 08:05:55;;;;;;;;;;;;;;;15.80;63.93;98878.75;5117409;28;19973;-64
2023/03/25 08:08:24;;;;;;;;;;;;;;;15.94;63.31;98891.97;5117391;28;19920;-64
2023/03/25 08:10:52;;;;;;;;;;;;;;;16.04;62.60;98893.34;5117244;28;19927;-65
2023/03/25 08:13:21;;;;;;;;;;;;;;;15.96;62.21;98885.03;5117314;28;19923;-64
2023/03/25 08:15:51;;;;;;;;;;;;;;;15.92;61.97;98873.19;5117166;28;19919;-64
2023/03/25 08:18:20;;;;;;;;;;;;;;;15.86;61.87;98878.53;5117529;28;19951;-64
2023/03/25 08:20:50;;;;;;;;;;;;;;;15.89;61.77;98873.28;5117149;28;20431;-65
2023/03/25 08:23:18;;;;;;;;;;;;;;;15.86;62.35;98878.53;5117136;28;19920;-64
2023/03/25 08:25:49;;;;;;;;;;;;;;;15.85;61.72;98866.56;5116906;28;19919;-64
2023/03/25 08:28:22;;;;;;;;;;;;;;;16.01;61.71;98854.84;5116987;28;20460;-64
2023/03/25 08:30:54;;;;;;;;;;;;;;;16.05;61.64;98853.81;5117011;28;20014;-64
2023/03/25 08:33:25;;;;;;;;;;;;;;;16.27;61.64;98845.34;5116830;28;19923;-64
2023/03/25 08:35:57;;;;;;;;;;;;;;;16.25;61.41;98841.94;5116838;28;20002;-64
2023/03/25 08:38:30;;;;;;;;;;;;;;;16.42;60.92;98848.16;5117216;28;20011;-64
2023/03/25 08:41:02;;;;;;;;;;;;;;;16.53;60.51;98834.91;5117175;28;19920;-64
2023/03/25 08:43:30;;;;;;;;;;;;;;;16.44;59.95;98830.06;5117036;28;20308;-64
2023/03/25 08:46:00;;;;;;;;;;;;;;;16.50;59.89;98829.84;5116572;28;19920;-64
2023/03/25 08:48:29;;;;;;;;;;;;;;;16.63;59.71;98824.19;5116745;28;19923;-64
2023/03/25 08:50:57;;;;;;;;;;;;;;;16.62;59.43;98821.69;5116397;28;19973;-64
2023/03/25 08:53:26;;;;;;;;;;;;;;;16.56;59.18;98824.47;5116457;28;19926;-64
2023/03/25 08:55:55;;;;;;;;;;;;;;;16.73;58.75;98817.78;5116442;28;19919;-64
2023/03/25 08:58:25;;;;;;;;;;;;;;;16.66;58.50;98815.50;5116462;28;19920;-65
2023/03/25 09:00:55;;;;;;;;;;;;;;;16.49;57.86;98812.69;5116012;28;19969;-64
2023/03/25 09:03:26;;;;;;;;;;;;;;;16.33;57.80;98807.31;5115976;28;19997;-65
2023/03/25 09:05:55;;;;;;;;;;;;;;;16.38;57.68;98807.13;5116263;28;19920;-64
2023/03/25 09:08:23;;;;;;;;;;;;;;;16.32;57.65;98802.19;5116225;27;20289;-64
2023/03/25 09:10:51;;;;;;;;;;;;;;;16.31;57.40;98792.81;5116862;28;19923;-64
2023/03/25 09:13:20;;;;;;;;;;;;;;;16.62;57.52;98794.19;5116519;28;20384;-64
2023/03/25 09:15:48;;;;;;;;;;;;;;;16.97;57.17;98797.06;5116139;28;19920;-64
2023/03/25 09:18:18;;;;;;;;;;;;;;;17.22;56.26;98798.59;5115976;28;20006;-65
2023/03/25 09:20:48;;;;;;;;;;;;;;;17.49;56.16;98795.75;5115986;28;19919;-64
2023/03/25 09:23:16;;;;;;;;;;;;;;;17.63;55.16;98806.34;5115598;27;19919;-64
2023/03/25 09:25:45;;;;;;;;;;;;;;;17.93;54.88;98799.84;5114670;28;19919;-64
2023/03/25 09:28:14;;;;;;;;;;;;;;;18.00;53.60;98796.06;5116079;28;19973;-64
2023/03/25 09:30:42;;;;;;;;;;;;;;;17.79;53.57;98797.03;5115738;28;19920;-64
2023/03/25 09:33:11;;;;;;;;;;;;;;;17.84;53.45;98800.25;5115772;28;19927;-64
2023/03/25 09:35:40;;;;;;;;;;;;;;;17.91;53.28;98804.22;5116541;28;20341;-64
2023/03/25 09:38:10;;;;;;;;;;;;;;;17.61;53.11;98808.16;5116040;28;19924;-64
2023/03/25 09:40:41;;;;;;;;;;;;;;;17.33;53.19;98809.28;5115879;28;20342;-64
2023/03/25 09:43:22;;;;;;;;;;;;;;;17.07;53.48;98806.97;5115696;28;20014;-64
2023/03/25 09:45:52;;;;;;;;;;;;;;;16.80;53.50;98808.06;5115451;28;19963;-64
2023/03/25 09:48:26;;;;;;;;;;;;;;;16.58;54.00;98817.56;5115386;28;19924;-64
2023/03/25 09:50:55;;;;;;;;;;;;;;;16.28;54.17;98808.38;5115499;28;19965;-64
2023/03/25 09:53:29;;;;;;;;;;;;;;;16.11;53.82;98803.84;5115652;27;19958;-64
2023/03/25 09:56:00;;;;;;;;;;;;;;;16.09;54.43;98797.94;5115308;28;20014;-64
2023/03/25 09:58:34;;;;;;;;;;;;;;;16.27;54.68;98802.38;5115570;28;20289;-64
2023/03/25 10:01:09;;;;;;;;;;;;;;;16.68;54.37;98793.09;5115537;28;19920;-64
2023/03/25 10:03:45;;;;;;;;;;;;;;;16.99;53.34;98793.53;5115265;28;20345;-64
2023/03/25 10:06:16;;;;;;;;;;;;;;;17.20;52.97;98787.47;5115093;28;20407;-64
2023/03/25 10:08:52;;;;;;;;;;;;;;;17.34;52.25;98792.94;5115148;28;19926;-64
2023/03/25 10:11:26;;;;;;;;;;;;;;;17.71;51.49;98799.09;5115343;28;19955;-64
2023/03/25 10:14:02;;;;;;;;;;;;;;;17.86;50.99;98788.09;5115058;28;20285;-64
2023/03/25 10:16:37;;;;;;;;;;;;;;;18.00;50.47;98785.75;5115301;28;19919;-64
2023/03/25 10:19:15;;;;;;;;;;;;;;;18.06;49.79;98785.47;5114778;28;19920;-64
2023/03/25 10:21:48;;;;;;;;;;;;;;;18.29;49.26;98792.16;5115268;28;19984;-64
2023/03/25 10:24:20;;;;;;;;;;;;;;;18.23;49.00;98785.56;5115157;28;19973;-65
2023/03/25 10:26:51;;;;;;;;;;;;;;;18.14;48.77;98783.38;5114993;28;20018;-64
2023/03/25 10:29:21;;;;;;;;;;;;;;;18.09;49.08;98782.75;5115201;28;20019;-64
2023/03/25 10:31:52;;;;;;;;;;;;;;;18.20;48.67;98777.94;5114578;28;20388;-64
2023/03/25 10:34:24;;;;;;;;;;;;;;;18.00;48.37;98776.25;5114747;28;20442;-64
2023/03/25 10:36:56;;;;;;;;;;;;;;;17.60;48.20;98780.66;5114663;28;20006;-64
2023/03/25 10:39:36;;;;;;;;;;;;;;;17.29;48.57;98792.28;5114679;28;19919;-64
2023/03/25 10:42:13;;;;;;;;;;;;;;;17.13;48.60;98796.38;5114722;28;19974;-63
2023/03/25 10:44:42;;;;;;;;;;;;;;;17.27;48.79;98804.41;5114857;28;19998;-64
2023/03/25 10:47:13;;;;;;;;;;;;;;;17.42;48.39;98805.47;5114475;28;20002;-63
2023/03/25 10:49:42;;;;;;;;;;;;;;;17.29;48.02;98805.16;5114556;28;19919;-63
2023/03/25 10:52:11;;;;;;;;;;;;;;;16.97;47.97;98810.81;5114445;28;20007;-63
2023/03/25 10:54:42;;;;;;;;;;;;;;;17.04;47.92;98803.66;5114409;28;19919;-63
2023/03/25 10:57:14;;;;;;;;;;;;;;;17.21;47.50;98809.81;5114693;28;20354;-64
2023/03/25 10:59:46;;;;;;;;;;;;;;;17.51;46.82;98807.69;5114354;28;19969;-63
2023/03/25 11:02:17;;;;;;;;;;;;;;;17.82;46.36;98796.91;5114398;28;19976;-64
2023/03/25 11:04:47;;;;;;;;;;;;;;;18.08;46.05;98802.59;5114668;28;19926;-64
2023/03/25 11:07:19;;;;;;;;;;;;;;;18.15;45.47;98800.56;5114548;28;20323;-63
2023/03/25 11:09:50;;;;;;;;;;;;;;;17.67;45.81;98802.72;5114549;28;20419;-64
2023/03/25 11:12:20;;;;;;;;;;;;;;;17.47;46.34;98800.97;5114955;28;19920;-63
2023/03/25 11:15:05;;;;;;;;;;;;;;;17.65;46.31;98796.78;5114620;28;20281;-64
2023/03/25 11:17:33;;;;;;;;;;;;;;;17.60;46.50;98796.16;5114182;28;19919;-62
2023/03/25 11:20:09;;;;;;;;;;;;;;;17.49;46.32;98791.44;5114492;28;20289;-62
2023/03/25 11:22:38;;;;;;;;;;;;;;;17.35;46.26;98796.31;5114054;28;19951;-64
2023/03/25 11:25:20;;;;;;;;;;;;;;;17.16;46.25;98791.09;5115076;28;19955;-65
2023/03/25 11:27:51;;;;;;;;;;;;;;;16.87;46.14;98794.03;5118129;28;20385;-65
2023/03/25 11:30:22;;;;;;;;;;;;;;;16.74;46.13;98787.69;5118448;28;19925;-64
2023/03/25 11:32:58;;;;;;;;;;;;;;;16.87;46.02;98793.22;5118543;28;19972;-64
2023/03/25 11:35:27;;;;;;;;;;;;;;;17.07;46.34;98799.22;5118479;27;19969;-64
2023/03/25 11:37:57;;;;;;;;;;;;;;;17.22;46.43;98800.34;5118400;28;19963;-64
2023/03/25 11:40:28;;;;;;;;;;;;;;;17.30;46.63;98804.25;5118232;28;19919;-64
2023/03/25 11:42:58;;;;;;;;;;;;;;;17.25;46.00;98795.06;5118016;28;19931;-64
2023/03/25 11:45:31;;;;;;;;;;;;;;;17.18;46.31;98798.78;5118118;28;19920;-62
2023/03/25 11:48:10;;;;;;;;;;;;;;;17.26;45.67;98801.88;5117860;28;19998;-62
2023/03/25 11:50:44;;;;;;;;;;;;;;;17.19;45.25;98801.28;5117819;28;19923;-62
2023/03/25 11:53:16;;;;;;;;;;;;;;;16.97;45.60;98800.50;5118036;28;20258;-63
2023/03/25 11:55:48;;;;;;;;;;;;;;;16.86;46.03;98802.69;5117698;28;19924;-62
2023/03/25 11:58:20;;;;;;;;;;;;;;;16.75;46.02;98810.81;5118046;28;19984;-63
2023/03/25 12:00:49;;;;;;;;;;;;;;;16.47;46.60;98815.34;5117575;28;19955;-63
2023/03/25 12:03:19;;;;;;;;;;;;;;;16.30;46.94;98807.41;5117515;28;19926;-63
2023/03/25 12:05:59;;;;;;;;;;;;;;;16.19;47.11;98809.56;5117339;28;19926;-63
2023/03/25 12:08:40;;;;;;;;;;;;;;;16.10;47.73;98815.88;5117789;28;19919;-63
2023/03/25 12:11:12;;;;;;;;;;;;;;;16.13;47.72;98808.94;5117425;28;19970;-63
2023/03/25 12:13:49;;;;;;;;;;;;;;;16.21;47.43;98804.34;5117312;28;19919;-63
2023/03/25 12:16:24;;;;;;;;;;;;;;;16.25;46.59;98808.47;5117312;28;19926;-63
2023/03/25 12:19:01;;;;;;;;;;;;;;;16.26;46.63;98811.00;5117521;27;19919;-62
2023/03/25 12:21:39;;;;;;;;;;;;;;;16.26;46.04;98811.00;5117259;28;19920;-62
2023/03/25 12:24:16;;;;;;;;;;;;;;;16.35;45.75;98794.34;5116785;28;19919;-64
2023/03/25 12:26:51;;;;;;;;;;;;;;;16.42;45.27;98800.97;5117041;28;19968;-64
2023/03/25 12:29:27;;;;;;;;;;;;;;;16.43;45.42;98797.50;5117089;28;20276;-64
2023/03/25 12:32:03;;;;;;;;;;;;;;;16.37;45.40;98787.41;5117338;28;19927;-64
2023/03/25 12:34:40;;;;;;;;;;;;;;;16.36;45.82;98801.22;5117297;28;20273;-64
2023/03/25 12:37:16;;;;;;;;;;;;;;;16.36;45.86;98788.31;5117422;28;20335;-63
2023/03/25 12:39:53;;;;;;;;;;;;;;;16.30;46.07;98791.97;5116818;28;19943;-64
2023/03/25 12:42:32;;;;;;;;;;;;;;;16.35;46.04;98784.91;5118004;28;20020;-64
2023/03/25 12:45:06;;;;;;;;;;;;;;;16.30;46.08;98776.50;5116009;28;19919;-64
2023/03/25 12:47:36;;;;;;;;;;;;;;;16.29;46.34;98771.44;5117260;28;19919;-64
2023/03/25 12:50:09;;;;;;;;;;;;;;;16.28;46.30;98767.16;5116702;28;19927;-64
2023/03/25 12:52:42;;;;;;;;;;;;;;;16.29;46.33;98769.66;5116943;28;20315;-64
2023/03/25 12:55:22;;;;;;;;;;;;;;;16.22;46.70;98767.41;5116630;28;19920;-64
2023/03/25 12:58:01;;;;;;;;;;;;;;;16.24;46.72;98755.31;5116521;28;19924;-64
2023/03/25 13:00:38;;;;;;;;;;;;;;;16.13;46.75;98753.16;5116503;28;20377;-64
2023/03/25 13:03:18;;;;;;;;;;;;;;;16.08;47.06;98755.88;5116406;28;19920;-64
2023/03/25 13:05:50;;;;;;;;;;;;;;;16.06;47.16;98752.53;5116281;28;19934;-64
2023/03/25 13:08:21;;;;;;;;;;;;;;;16.10;47.15;98748.09;5116268;28;19920;-62
2023/03/25 13:10:55;;;;;;;;;;;;;;;15.99;47.27;98743.38;5116512;28;20306;-63